Wetterdaten: aktuell Montag, 10.12.2018 11:08
Datum Zeit Temperatur Luftfeuchte Luftdruck Regen Windgeschw. Windrichtung Windrichtung Taupunkt
10.12.2018 11:08 1,1 C 61 % 1011 hPa 0,4 l/m 0,0 km/h O-SO45 105 -5,6 C
10.12.2018 10:08 0,5 C 65 % 1010 hPa 0,0 l/m 0,0 km/h S-SO22.5 150 -5,3 C
10.12.2018 09:08 0,5 C 68 % 1009 hPa 0,0 l/m 0,0 km/h SO 145 -4,7 C
10.12.2018 08:07 -0,5 C 71 % 1009 hPa 0,0 l/m 0,0 km/h SO 145 -5,1 C
10.12.2018 07:09 -0,2 C 73 % 1008 hPa 0,0 l/m 0,0 km/h SO22.5 125 -4,4 C
10.12.2018 06:09 0,0 C 71 % 1008 hPa 0,0 l/m 0,0 km/h SO67.5 145 -4,6 C
10.12.2018 05:09 0,1 C 70 % 1007 hPa 0,4 l/m 0,0 km/h SO 140 -4,7 C
10.12.2018 04:09 0,3 C 74 % 1006 hPa 0,0 l/m 0,0 km/h SO 140 -3,8 C
10.12.2018 03:08 0,4 C 75 % 1006 hPa 0,7 l/m 0,0 km/h O67.5 90 -3,5 C
10.12.2018 02:08 1,3 C 70 % 1005 hPa 0,0 l/m 0,0 km/h NO22.5 50 -3,6 C
10.12.2018 01:09 1,8 C 70 % 1005 hPa 0,0 l/m 0,0 km/h SO 140 -3,1 C
10.12.2018 00:09 2,1 C 72 % 1004 hPa 0,4 l/m 0,0 km/h SO 140 -2,4 C
09.12.2018 23:08 2,4 C 70 % 1003 hPa 0,0 l/m 0,0 km/h SO 140 -2,5 C
09.12.2018 22:08 2,5 C 69 % 1002 hPa 0,0 l/m 0,0 km/h S45 175 -2,6 C
09.12.2018 21:09 2,6 C 69 % 1002 hPa 0,0 l/m 0,0 km/h S-SO67.5 165 -2,5 C
09.12.2018 20:09 2,5 C 71 % 1001 hPa 0,0 l/m 0,0 km/h SO45 145 -2,2 C
09.12.2018 19:08 2,5 C 70 % 1000 hPa 0,0 l/m 0,0 km/h SO45 140 -2,4 C
09.12.2018 18:08 2,5 C 70 % 1000 hPa 0,0 l/m 0,1 km/h S-SO45 165 -2,4 C
09.12.2018 17:08 2,4 C 70 % 1000 hPa 0,0 l/m 0,0 km/h S45 180 -2,5 C
09.12.2018 16:09 2,5 C 72 % 999 hPa 0,0 l/m 0,1 km/h S-SO45 155 -2,0 C
09.12.2018 15:08 2,2 C 71 % 999 hPa 2,2 l/m 0,0 km/h S-SO45 160 -2,5 C
09.12.2018 14:08 2,9 C 69 % 999 hPa 0,0 l/m 0,0 km/h S-SO45 160 -2,2 C
09.12.2018 13:08 2,9 C 70 % 999 hPa 0,0 l/m 3,2 km/h S-SO45 165 -2,0 C
09.12.2018 12:08 3,3 C 70 % 999 hPa 0,0 l/m 2,5 km/h S-SO22.5 160 -1,6 C
09.12.2018 12:03 3,3 C 70 % 999 hPa 0,0 l/m 0,0 km/h S45 170 -1,6 C
_ Min-Zeit 08:02 11:03 12:03 - 12:03 - - 10:28
Minimum _ -0,5 C 61 % 999 hPa - 0,0 km/h - - -5,7 C
_ Max-Zeit 12:03 03:08 10:48 14:23 13:53 - - 12:03
Maximum _ 3,3 C 75 % 1011 hPa 1,8 l/m 26,6 km/h
S-SO
- - -1,6 C
Durchschnitt _ 1,6 C 70 % 1004 hPa #4,0 l/m 0,8 km/h S-SO - -3,3 C